sensor_id;sensor_type;location;lat;lon;timestamp;temperature;humidity
44509;DHT22;30214;52.246;14.408;2023-01-01T00:02:09;15.80;99.90
44509;DHT22;30214;52.246;14.408;2023-01-01T00:04:36;15.80;99.90
44509;DHT22;30214;52.246;14.408;2023-01-01T00:07:03;15.80;99.90
44509;DHT22;30214;52.246;14.408;2023-01-01T00:09:30;15.80;99.90
44509;DHT22;30214;52.246;14.408;2023-01-01T00:12:16;15.80;99.90
44509;DHT22;30214;52.246;14.408;2023-01-01T00:14:43;15.70;99.90
44509;DHT22;30214;52.246;14.408;2023-01-01T00:17:11;15.70;99.90
44509;DHT22;30214;52.246;14.408;2023-01-01T00:19:38;15.70;99.90
44509;DHT22;30214;52.246;14.408;2023-01-01T00:22:05;15.70;99.90
44509;DHT22;30214;52.246;14.408;2023-01-01T00:24:32;15.70;99.90
44509;DHT22;30214;52.246;14.408;2023-01-01T00:27:00;15.70;99.90
44509;DHT22;30214;52.246;14.408;2023-01-01T00:29:28;15.70;99.90
44509;DHT22;30214;52.246;14.408;2023-01-01T00:31:55;15.80;99.90
44509;DHT22;30214;52.246;14.408;2023-01-01T00:34:22;15.90;99.90
44509;DHT22;30214;52.246;14.408;2023-01-01T00:36:49;15.90;99.90
44509;DHT22;30214;52.246;14.408;2023-01-01T00:39:17;15.90;99.90
44509;DHT22;30214;52.246;14.408;2023-01-01T00:41:44;15.90;99.90
44509;DHT22;30214;52.246;14.408;2023-01-01T00:44:11;15.90;99.90
44509;DHT22;30214;52.246;14.408;2023-01-01T00:46:39;15.90;99.80
44509;DHT22;30214;52.246;14.408;2023-01-01T00:49:06;16.00;99.70
44509;DHT22;30214;52.246;14.408;2023-01-01T00:51:37;16.00;99.40
44509;DHT22;30214;52.246;14.408;2023-01-01T00:54:05;16.00;99.30
44509;DHT22;30214;52.246;14.408;2023-01-01T00:56:32;16.00;99.30
44509;DHT22;30214;52.246;14.408;2023-01-01T00:59:02;16.10;98.80
44509;DHT22;30214;52.246;14.408;2023-01-01T01:01:29;16.10;98.80
44509;DHT22;30214;52.246;14.408;2023-01-01T01:03:59;16.10;98.70
44509;DHT22;30214;52.246;14.408;2023-01-01T01:06:26;16.10;98.70
44509;DHT22;30214;52.246;14.408;2023-01-01T01:08:53;16.10;98.50
44509;DHT22;30214;52.246;14.408;2023-01-01T01:11:22;16.10;98.40
44509;DHT22;30214;52.246;14.408;2023-01-01T01:13:52;16.10;98.50
44509;DHT22;30214;52.246;14.408;2023-01-01T01:16:22;16.10;98.00
44509;DHT22;30214;52.246;14.408;2023-01-01T01:18:50;16.20;97.70
44509;DHT22;30214;52.246;14.408;2023-01-01T01:21:21;16.20;97.30
44509;DHT22;30214;52.246;14.408;2023-01-01T01:23:48;16.30;97.50
44509;DHT22;30214;52.246;14.408;2023-01-01T01:26:18;16.30;97.60
44509;DHT22;30214;52.246;14.408;2023-01-01T01:28:46;16.20;97.50
44509;DHT22;30214;52.246;14.408;2023-01-01T01:31:14;16.30;97.20
44509;DHT22;30214;52.246;14.408;2023-01-01T01:33:42;16.30;97.00
44509;DHT22;30214;52.246;14.408;2023-01-01T01:36:10;16.30;97.10
44509;DHT22;30214;52.246;14.408;2023-01-01T01:38:40;16.30;96.80
44509;DHT22;30214;52.246;14.408;2023-01-01T01:41:08;16.30;96.80
44509;DHT22;30214;52.246;14.408;2023-01-01T01:43:50;16.30;96.80
44509;DHT22;30214;52.246;14.408;2023-01-01T01:46:22;16.30;96.60
44509;DHT22;30214;52.246;14.408;2023-01-01T01:48:54;16.30;96.60
44509;DHT22;30214;52.246;14.408;2023-01-01T01:51:27;16.20;96.80
44509;DHT22;30214;52.246;14.408;2023-01-01T01:54:01;16.20;96.60
44509;DHT22;30214;52.246;14.408;2023-01-01T01:56:34;16.20;96.20
44509;DHT22;30214;52.246;14.408;2023-01-01T01:59:05;16.30;96.00
44509;DHT22;30214;52.246;14.408;2023-01-01T02:01:32;16.30;96.10
44509;DHT22;30214;52.246;14.408;2023-01-01T02:04:00;16.30;96.30
44509;DHT22;30214;52.246;14.408;2023-01-01T02:06:29;16.30;95.80
44509;DHT22;30214;52.246;14.408;2023-01-01T02:09:02;16.30;95.90
44509;DHT22;30214;52.246;14.408;2023-01-01T02:11:31;16.30;95.30
44509;DHT22;30214;52.246;14.408;2023-01-01T02:13:59;16.30;95.60
44509;DHT22;30214;52.246;14.408;2023-01-01T02:16:32;16.30;95.40
44509;DHT22;30214;52.246;14.408;2023-01-01T02:19:14;16.30;95.40
44509;DHT22;30214;52.246;14.408;2023-01-01T02:21:55;16.30;94.90
44509;DHT22;30214;52.246;14.408;2023-01-01T02:24:45;16.30;94.90
44509;DHT22;30214;52.246;14.408;2023-01-01T02:27:23;16.30;94.70
44509;DHT22;30214;52.246;14.408;2023-01-01T02:29:59;16.30;95.00
44509;DHT22;30214;52.246;14.408;2023-01-01T02:32:31;16.30;94.90
44509;DHT22;30214;52.246;14.408;2023-01-01T02:35:05;16.20;94.60
44509;DHT22;30214;52.246;14.408;2023-01-01T02:37:52;16.20;94.40
44509;DHT22;30214;52.246;14.408;2023-01-01T02:40:23;16.30;94.40
44509;DHT22;30214;52.246;14.408;2023-01-01T02:42:52;16.20;94.20
44509;DHT22;30214;52.246;14.408;2023-01-01T02:45:22;16.20;94.10
44509;DHT22;30214;52.246;14.408;2023-01-01T02:47:49;16.20;93.50
44509;DHT22;30214;52.246;14.408;2023-01-01T02:50:19;16.40;93.10
44509;DHT22;30214;52.246;14.408;2023-01-01T02:52:55;16.40;93.50
44509;DHT22;30214;52.246;14.408;2023-01-01T02:55:36;16.40;93.10
44509;DHT22;30214;52.246;14.408;2023-01-01T02:58:15;16.40;93.30
44509;DHT22;30214;52.246;14.408;2023-01-01T03:01:08;16.30;93.00
44509;DHT22;30214;52.246;14.408;2023-01-01T03:03:39;16.40;92.90
44509;DHT22;30214;52.246;14.408;2023-01-01T03:06:13;16.30;93.20
44509;DHT22;30214;52.246;14.408;2023-01-01T03:08:51;16.20;93.30
44509;DHT22;30214;52.246;14.408;2023-01-01T03:11:29;16.20;93.20
44509;DHT22;30214;52.246;14.408;2023-01-01T03:14:04;16.10;93.30
44509;DHT22;30214;52.246;14.408;2023-01-01T03:16:39;16.20;93.50
44509;DHT22;30214;52.246;14.408;2023-01-01T03:19:13;16.10;93.30
44509;DHT22;30214;52.246;14.408;2023-01-01T03:21:44;16.10;93.70
44509;DHT22;30214;52.246;14.408;2023-01-01T03:24:21;16.10;93.70
44509;DHT22;30214;52.246;14.408;2023-01-01T03:26:53;16.10;93.80
44509;DHT22;30214;52.246;14.408;2023-01-01T03:29:22;16.10;93.60
44509;DHT22;30214;52.246;14.408;2023-01-01T03:31:54;16.10;93.70
44509;DHT22;30214;52.246;14.408;2023-01-01T03:34:29;16.10;94.00
44509;DHT22;30214;52.246;14.408;2023-01-01T03:37:01;16.00;93.90
44509;DHT22;30214;52.246;14.408;2023-01-01T03:39:34;16.00;94.20
44509;DHT22;30214;52.246;14.408;2023-01-01T03:42:09;15.90;94.40
44509;DHT22;30214;52.246;14.408;2023-01-01T03:44:44;15.90;94.50
44509;DHT22;30214;52.246;14.408;2023-01-01T03:47:14;15.90;94.90
44509;DHT22;30214;52.246;14.408;2023-01-01T03:49:42;15.90;95.10
44509;DHT22;30214;52.246;14.408;2023-01-01T03:52:28;15.80;95.40
44509;DHT22;30214;52.246;14.408;2023-01-01T03:55:04;15.80;95.50
44509;DHT22;30214;52.246;14.408;2023-01-01T03:57:34;15.70;95.70
44509;DHT22;30214;52.246;14.408;2023-01-01T04:00:08;15.80;96.00
44509;DHT22;30214;52.246;14.408;2023-01-01T04:02:45;15.70;96.30
44509;DHT22;30214;52.246;14.408;2023-01-01T04:05:16;15.60;96.80
44509;DHT22;30214;52.246;14.408;2023-01-01T04:07:45;15.60;97.00
44509;DHT22;30214;52.246;14.408;2023-01-01T04:10:13;15.50;97.40
44509;DHT22;30214;52.246;14.408;2023-01-01T04:12:45;15.40;97.70
44509;DHT22;30214;52.246;14.408;2023-01-01T04:15:14;15.40;97.80
44509;DHT22;30214;52.246;14.408;2023-01-01T04:17:43;15.40;98.00
44509;DHT22;30214;52.246;14.408;2023-01-01T04:20:10;15.40;98.00
44509;DHT22;30214;52.246;14.408;2023-01-01T04:22:38;15.30;98.20
44509;DHT22;30214;52.246;14.408;2023-01-01T04:25:07;15.30;98.20
44509;DHT22;30214;52.246;14.408;2023-01-01T04:27:35;15.20;98.40
44509;DHT22;30214;52.246;14.408;2023-01-01T04:30:02;15.20;98.50
44509;DHT22;30214;52.246;14.408;2023-01-01T04:32:30;15.10;98.60
44509;DHT22;30214;52.246;14.408;2023-01-01T04:34:58;15.20;98.50
44509;DHT22;30214;52.246;14.408;2023-01-01T04:37:25;15.20;98.40
44509;DHT22;30214;52.246;14.408;2023-01-01T04:39:53;15.20;98.50
44509;DHT22;30214;52.246;14.408;2023-01-01T04:42:20;15.10;98.50
44509;DHT22;30214;52.246;14.408;2023-01-01T04:44:47;15.10;98.80
44509;DHT22;30214;52.246;14.408;2023-01-01T04:47:14;15.10;98.90
44509;DHT22;30214;52.246;14.408;2023-01-01T04:49:41;15.00;98.90
44509;DHT22;30214;52.246;14.408;2023-01-01T04:52:09;15.10;98.90
44509;DHT22;30214;52.246;14.408;2023-01-01T04:54:36;15.00;99.00
44509;DHT22;30214;52.246;14.408;2023-01-01T04:57:03;15.10;99.10
44509;DHT22;30214;52.246;14.408;2023-01-01T04:59:31;15.00;99.10
44509;DHT22;30214;52.246;14.408;2023-01-01T05:01:58;15.10;99.20
44509;DHT22;30214;52.246;14.408;2023-01-01T05:04:25;15.00;99.30
44509;DHT22;30214;52.246;14.408;2023-01-01T05:06:52;15.00;99.30
44509;DHT22;30214;52.246;14.408;2023-01-01T05:09:21;15.00;99.60
44509;DHT22;30214;52.246;14.408;2023-01-01T05:11:48;15.10;99.30
44509;DHT22;30214;52.246;14.408;2023-01-01T05:14:15;15.00;99.10
44509;DHT22;30214;52.246;14.408;2023-01-01T05:16:42;15.00;99.40
44509;DHT22;30214;52.246;14.408;2023-01-01T05:19:09;15.00;99.30
44509;DHT22;30214;52.246;14.408;2023-01-01T05:21:38;15.00;99.20
44509;DHT22;30214;52.246;14.408;2023-01-01T05:24:07;15.00;99.50
44509;DHT22;30214;52.246;14.408;2023-01-01T05:26:41;15.00;99.50
44509;DHT22;30214;52.246;14.408;2023-01-01T05:29:09;15.00;99.40
44509;DHT22;30214;52.246;14.408;2023-01-01T05:31:37;15.10;99.40
44509;DHT22;30214;52.246;14.408;2023-01-01T05:34:04;15.00;99.40
44509;DHT22;30214;52.246;14.408;2023-01-01T05:36:33;15.10;99.30
44509;DHT22;30214;52.246;14.408;2023-01-01T05:39:05;15.00;99.50
44509;DHT22;30214;52.246;14.408;2023-01-01T05:41:32;15.00;99.40
44509;DHT22;30214;52.246;14.408;2023-01-01T05:44:02;15.00;99.40
44509;DHT22;30214;52.246;14.408;2023-01-01T05:46:31;15.00;99.60
44509;DHT22;30214;52.246;14.408;2023-01-01T05:48:59;15.00;99.70
44509;DHT22;30214;52.246;14.408;2023-01-01T05:51:27;15.00;99.80
44509;DHT22;30214;52.246;14.408;2023-01-01T05:53:56;15.00;99.60
44509;DHT22;30214;52.246;14.408;2023-01-01T05:56:27;15.00;99.60
44509;DHT22;30214;52.246;14.408;2023-01-01T05:58:55;15.00;99.60
44509;DHT22;30214;52.246;14.408;2023-01-01T06:01:28;15.00;99.60
44509;DHT22;30214;52.246;14.408;2023-01-01T06:03:57;15.00;99.80
44509;DHT22;30214;52.246;14.408;2023-01-01T06:06:26;15.00;99.80
44509;DHT22;30214;52.246;14.408;2023-01-01T06:08:57;14.90;99.80
44509;DHT22;30214;52.246;14.408;2023-01-01T06:11:26;15.00;99.60
44509;DHT22;30214;52.246;14.408;2023-01-01T06:13:56;15.00;99.70
44509;DHT22;30214;52.246;14.408;2023-01-01T06:16:26;15.10;99.30
44509;DHT22;30214;52.246;14.408;2023-01-01T06:18:54;15.00;99.40
44509;DHT22;30214;52.246;14.408;2023-01-01T06:21:25;15.00;99.50
44509;DHT22;30214;52.246;14.408;2023-01-01T06:23:54;15.00;99.70
44509;DHT22;30214;52.246;14.408;2023-01-01T06:26:24;14.90;99.80
44509;DHT22;30214;52.246;14.408;2023-01-01T06:28:54;14.90;99.70
44509;DHT22;30214;52.246;14.408;2023-01-01T06:31:22;14.90;99.60
44509;DHT22;30214;52.246;14.408;2023-01-01T06:33:50;15.00;99.40
44509;DHT22;30214;52.246;14.408;2023-01-01T06:36:19;15.00;99.60
44509;DHT22;30214;52.246;14.408;2023-01-01T06:38:49;15.00;99.50
44509;DHT22;30214;52.246;14.408;2023-01-01T06:41:18;14.90;99.40
44509;DHT22;30214;52.246;14.408;2023-01-01T06:43:46;15.00;99.50
44509;DHT22;30214;52.246;14.408;2023-01-01T06:46:16;15.00;99.60
44509;DHT22;30214;52.246;14.408;2023-01-01T06:48:45;15.00;99.40
44509;DHT22;30214;52.246;14.408;2023-01-01T06:51:16;15.00;99.50
44509;DHT22;30214;52.246;14.408;2023-01-01T06:53:44;14.90;99.50
44509;DHT22;30214;52.246;14.408;2023-01-01T06:56:11;14.90;99.60
44509;DHT22;30214;52.246;14.408;2023-01-01T06:58:39;14.90;99.50
44509;DHT22;30214;52.246;14.408;2023-01-01T07:01:09;14.90;99.70
44509;DHT22;30214;52.246;14.408;2023-01-01T07:03:37;14.90;99.70
44509;DHT22;30214;52.246;14.408;2023-01-01T07:06:05;14.90;99.50
44509;DHT22;30214;52.246;14.408;2023-01-01T07:08:35;15.00;99.50
44509;DHT22;30214;52.246;14.408;2023-01-01T07:11:03;14.90;99.50
44509;DHT22;30214;52.246;14.408;2023-01-01T07:13:30;14.90;99.70
44509;DHT22;30214;52.246;14.408;2023-01-01T07:15:58;14.90;99.50
44509;DHT22;30214;52.246;14.408;2023-01-01T07:18:26;15.00;99.30
44509;DHT22;30214;52.246;14.408;2023-01-01T07:20:55;15.00;99.30
44509;DHT22;30214;52.246;14.408;2023-01-01T07:23:23;15.10;99.20
44509;DHT22;30214;52.246;14.408;2023-01-01T07:25:53;15.10;99.00
44509;DHT22;30214;52.246;14.408;2023-01-01T07:28:22;15.10;99.00
44509;DHT22;30214;52.246;14.408;2023-01-01T07:30:50;15.10;99.10
44509;DHT22;30214;52.246;14.408;2023-01-01T07:33:19;15.00;99.10
44509;DHT22;30214;52.246;14.408;2023-01-01T07:35:47;15.10;99.30
44509;DHT22;30214;52.246;14.408;2023-01-01T07:38:15;15.10;99.20
44509;DHT22;30214;52.246;14.408;2023-01-01T07:40:42;15.00;99.10
44509;DHT22;30214;52.246;14.408;2023-01-01T07:43:10;15.00;99.10
44509;DHT22;30214;52.246;14.408;2023-01-01T07:45:39;15.10;99.10
44509;DHT22;30214;52.246;14.408;2023-01-01T07:48:07;15.00;99.30
44509;DHT22;30214;52.246;14.408;2023-01-01T07:50:35;15.00;99.30
44509;DHT22;30214;52.246;14.408;2023-01-01T07:53:03;15.00;99.10
44509;DHT22;30214;52.246;14.408;2023-01-01T07:55:30;15.00;99.20
44509;DHT22;30214;52.246;14.408;2023-01-01T07:57:58;15.00;99.30
44509;DHT22;30214;52.246;14.408;2023-01-01T08:00:27;15.00;99.30
44509;DHT22;30214;52.246;14.408;2023-01-01T08:02:54;14.90;99.60
44509;DHT22;30214;52.246;14.408;2023-01-01T08:05:21;14.90;99.70
44509;DHT22;30214;52.246;14.408;2023-01-01T08:07:49;14.90;99.50
44509;DHT22;30214;52.246;14.408;2023-01-01T08:10:17;14.90;99.60
44509;DHT22;30214;52.246;14.408;2023-01-01T08:12:46;15.00;99.50
44509;DHT22;30214;52.246;14.408;2023-01-01T08:15:13;15.00;99.40
44509;DHT22;30214;52.246;14.408;2023-01-01T08:17:42;15.00;99.50
44509;DHT22;30214;52.246;14.408;2023-01-01T08:20:09;15.00;99.50
44509;DHT22;30214;52.246;14.408;2023-01-01T08:22:37;15.00;99.40
44509;DHT22;30214;52.246;14.408;2023-01-01T08:25:07;15.00;99.40
44509;DHT22;30214;52.246;14.408;2023-01-01T08:27:35;15.10;99.50
44509;DHT22;30214;52.246;14.408;2023-01-01T08:30:03;15.00;99.40
44509;DHT22;30214;52.246;14.408;2023-01-01T08:32:31;15.00;99.50
44509;DHT22;30214;52.246;14.408;2023-01-01T08:34:59;15.00;99.70
44509;DHT22;30214;52.246;14.408;2023-01-01T08:37:26;15.00;99.70
44509;DHT22;30214;52.246;14.408;2023-01-01T08:39:53;15.00;99.80
44509;DHT22;30214;52.246;14.408;2023-01-01T08:42:21;15.00;99.90
44509;DHT22;30214;52.246;14.408;2023-01-01T08:44:48;15.00;99.90
44509;DHT22;30214;52.246;14.408;2023-01-01T08:47:20;15.00;99.70
44509;DHT22;30214;52.246;14.408;2023-01-01T08:49:47;15.10;99.90
44509;DHT22;30214;52.246;14.408;2023-01-01T08:52:16;15.10;99.60
44509;DHT22;30214;52.246;14.408;2023-01-01T08:54:44;15.10;99.50
44509;DHT22;30214;52.246;14.408;2023-01-01T08:57:11;15.10;99.50
44509;DHT22;30214;52.246;14.408;2023-01-01T08:59:38;15.10;99.90
44509;DHT22;30214;52.246;14.408;2023-01-01T09:02:06;15.10;99.80
44509;DHT22;30214;52.246;14.408;2023-01-01T09:04:35;15.10;99.90
44509;DHT22;30214;52.246;14.408;2023-01-01T09:07:03;15.10;99.60
44509;DHT22;30214;52.246;14.408;2023-01-01T09:09:31;15.10;99.60
44509;DHT22;30214;52.246;14.408;2023-01-01T09:12:00;15.20;99.80
44509;DHT22;30214;52.246;14.408;2023-01-01T09:14:31;15.20;99.80
44509;DHT22;30214;52.246;14.408;2023-01-01T09:16:58;15.20;99.80
44509;DHT22;30214;52.246;14.408;2023-01-01T09:19:26;15.20;99.80
44509;DHT22;30214;52.246;14.408;2023-01-01T09:21:53;15.30;99.80
44509;DHT22;30214;52.246;14.408;2023-01-01T09:24:20;15.20;99.90
44509;DHT22;30214;52.246;14.408;2023-01-01T09:26:49;15.20;99.90
44509;DHT22;30214;52.246;14.408;2023-01-01T09:29:16;15.20;99.90
44509;DHT22;30214;52.246;14.408;2023-01-01T09:31:45;15.20;99.90
44509;DHT22;30214;52.246;14.408;2023-01-01T09:34:13;15.20;99.90
44509;DHT22;30214;52.246;14.408;2023-01-01T09:36:41;15.20;99.90
44509;DHT22;30214;52.246;14.408;2023-01-01T09:39:11;15.20;99.90
44509;DHT22;30214;52.246;14.408;2023-01-01T09:41:57;15.20;99.80
44509;DHT22;30214;52.246;14.408;2023-01-01T09:44:54;15.20;99.90
44509;DHT22;30214;52.246;14.408;2023-01-01T09:47:29;15.20;99.90
44509;DHT22;30214;52.246;14.408;2023-01-01T09:50:02;15.20;99.90
44509;DHT22;30214;52.246;14.408;2023-01-01T09:52:42;15.20;99.90
44509;DHT22;30214;52.246;14.408;2023-01-01T09:55:20;15.30;99.90
44509;DHT22;30214;52.246;14.408;2023-01-01T09:57:52;15.30;99.90
44509;DHT22;30214;52.246;14.408;2023-01-01T10:00:20;15.30;99.90
44509;DHT22;30214;52.246;14.408;2023-01-01T10:03:14;15.30;99.90
44509;DHT22;30214;52.246;14.408;2023-01-01T10:05:52;15.30;99.90
44509;DHT22;30214;52.246;14.408;2023-01-01T10:08:47;15.40;99.90
44509;DHT22;30214;52.246;14.408;2023-01-01T10:11:23;15.40;99.90
44509;DHT22;30214;52.246;14.408;2023-01-01T10:13:57;15.50;99.90
44509;DHT22;30214;52.246;14.408;2023-01-01T10:16:30;15.50;99.80
44509;DHT22;30214;52.246;14.408;2023-01-01T10:19:10;15.60;99.50
44509;DHT22;30214;52.246;14.408;2023-01-01T10:21:51;15.60;99.70
44509;DHT22;30214;52.246;14.408;2023-01-01T10:24:36;15.60;99.80
44509;DHT22;30214;52.246;14.408;2023-01-01T10:27:11;15.60;99.70
44509;DHT22;30214;52.246;14.408;2023-01-01T10:29:59;15.70;99.60
44509;DHT22;30214;52.246;14.408;2023-01-01T10:32:32;15.60;99.70
44509;DHT22;30214;52.246;14.408;2023-01-01T10:35:02;15.70;99.50
44509;DHT22;30214;52.246;14.408;2023-01-01T10:37:36;15.70;99.40
44509;DHT22;30214;52.246;14.408;2023-01-01T10:40:12;15.70;99.50
44509;DHT22;30214;52.246;14.408;2023-01-01T10:42:40;15.70;99.40
44509;DHT22;30214;52.246;14.408;2023-01-01T10:45:14;15.80;99.50
44509;DHT22;30214;52.246;14.408;2023-01-01T10:48:10;15.80;99.40
44509;DHT22;30214;52.246;14.408;2023-01-01T10:50:44;15.80;98.90
44509;DHT22;30214;52.246;14.408;2023-01-01T10:53:26;15.90;99.20
44509;DHT22;30214;52.246;14.408;2023-01-01T10:56:00;15.90;98.90
44509;DHT22;30214;52.246;14.408;2023-01-01T10:58:44;16.00;98.80
44509;DHT22;30214;52.246;14.408;2023-01-01T11:01:19;16.00;98.60
44509;DHT22;30214;52.246;14.408;2023-01-01T11:03:57;16.10;98.70
44509;DHT22;30214;52.246;14.408;2023-01-01T11:06:26;16.20;98.00
44509;DHT22;30214;52.246;14.408;2023-01-01T11:08:55;16.30;98.10
44509;DHT22;30214;52.246;14.408;2023-01-01T11:11:29;16.30;98.30
44509;DHT22;30214;52.246;14.408;2023-01-01T11:13:59;16.30;98.00
44509;DHT22;30214;52.246;14.408;2023-01-01T11:16:30;16.30;97.90
44509;DHT22;30214;52.246;14.408;2023-01-01T11:19:03;16.20;98.30
44509;DHT22;30214;52.246;14.408;2023-01-01T11:21:32;16.20;98.40
44509;DHT22;30214;52.246;14.408;2023-01-01T11:24:15;16.10;97.90
44509;DHT22;30214;52.246;14.408;2023-01-01T11:26:44;16.10;98.20
44509;DHT22;30214;52.246;14.408;2023-01-01T11:29:20;16.10;98.30
44509;DHT22;30214;52.246;14.408;2023-01-01T11:31:52;16.00;98.70
44509;DHT22;30214;52.246;14.408;2023-01-01T11:34:31;16.00;98.50
44509;DHT22;30214;52.246;14.408;2023-01-01T11:37:08;16.00;98.50
44509;DHT22;30214;52.246;14.408;2023-01-01T11:39:41;16.00;97.90
44509;DHT22;30214;52.246;14.408;2023-01-01T11:42:16;16.10;98.10
44509;DHT22;30214;52.246;14.408;2023-01-01T11:44:46;16.10;97.80
44509;DHT22;30214;52.246;14.408;2023-01-01T11:47:22;16.10;97.90
44509;DHT22;30214;52.246;14.408;2023-01-01T11:49:54;16.20;97.40
44509;DHT22;30214;52.246;14.408;2023-01-01T11:52:28;16.10;97.80
44509;DHT22;30214;52.246;14.408;2023-01-01T11:55:11;16.10;98.00
44509;DHT22;30214;52.246;14.408;2023-01-01T11:57:50;16.00;97.50
44509;DHT22;30214;52.246;14.408;2023-01-01T12:00:23;16.00;98.10
44509;DHT22;30214;52.246;14.408;2023-01-01T12:02:57;16.10;97.70
44509;DHT22;30214;52.246;14.408;2023-01-01T12:05:33;16.00;98.20
44509;DHT22;30214;52.246;14.408;2023-01-01T12:08:06;16.00;98.40
44509;DHT22;30214;52.246;14.408;2023-01-01T12:10:40;16.10;97.90
44509;DHT22;30214;52.246;14.408;2023-01-01T12:13:16;16.00;98.00
44509;DHT22;30214;52.246;14.408;2023-01-01T12:15:50;16.00;97.90
44509;DHT22;30214;52.246;14.408;2023-01-01T12:18:24;16.00;98.10
44509;DHT22;30214;52.246;14.408;2023-01-01T12:20:58;16.00;97.90
44509;DHT22;30214;52.246;14.408;2023-01-01T12:23:26;16.00;97.60
44509;DHT22;30214;52.246;14.408;2023-01-01T12:25:59;15.90;97.70
44509;DHT22;30214;52.246;14.408;2023-01-01T12:28:38;16.00;97.70
44509;DHT22;30214;52.246;14.408;2023-01-01T12:31:15;16.10;97.50
44509;DHT22;30214;52.246;14.408;2023-01-01T12:34:03;16.00;97.80
44509;DHT22;30214;52.246;14.408;2023-01-01T12:36:41;16.00;97.70
44509;DHT22;30214;52.246;14.408;2023-01-01T12:39:49;16.10;97.60
44509;DHT22;30214;52.246;14.408;2023-01-01T12:42:32;16.00;97.40
44509;DHT22;30214;52.246;14.408;2023-01-01T12:51:32;16.00;98.20
44509;DHT22;30214;52.246;14.408;2023-01-01T12:54:25;16.00;98.00
44509;DHT22;30214;52.246;14.408;2023-01-01T12:57:02;16.00;98.80
44509;DHT22;30214;52.246;14.408;2023-01-01T12:59:35;15.90;98.80
44509;DHT22;30214;52.246;14.408;2023-01-01T13:02:13;16.00;98.20
44509;DHT22;30214;52.246;14.408;2023-01-01T13:04:46;15.90;98.50
44509;DHT22;30214;52.246;14.408;2023-01-01T13:07:21;15.90;98.90
44509;DHT22;30214;52.246;14.408;2023-01-01T13:09:51;15.80;98.90
44509;DHT22;30214;52.246;14.408;2023-01-01T13:12:20;15.80;99.40
44509;DHT22;30214;52.246;14.408;2023-01-01T13:14:49;15.80;99.30
44509;DHT22;30214;52.246;14.408;2023-01-01T13:17:18;15.80;99.20
44509;DHT22;30214;52.246;14.408;2023-01-01T13:19:49;15.80;99.60
44509;DHT22;30214;52.246;14.408;2023-01-01T13:22:42;15.80;99.40
44509;DHT22;30214;52.246;14.408;2023-01-01T13:25:21;15.80;99.70
44509;DHT22;30214;52.246;14.408;2023-01-01T13:28:03;15.80;99.50
44509;DHT22;30214;52.246;14.408;2023-01-01T13:30:48;15.90;99.20
44509;DHT22;30214;52.246;14.408;2023-01-01T13:33:18;15.80;99.50
44509;DHT22;30214;52.246;14.408;2023-01-01T13:38:58;15.80;99.50
44509;DHT22;30214;52.246;14.408;2023-01-01T13:41:39;15.80;99.60
44509;DHT22;30214;52.246;14.408;2023-01-01T13:44:15;15.80;99.70
44509;DHT22;30214;52.246;14.408;2023-01-01T13:47:05;15.80;99.50
44509;DHT22;30214;52.246;14.408;2023-01-01T13:49:53;15.80;99.30
44509;DHT22;30214;52.246;14.408;2023-01-01T13:52:54;15.80;99.50
44509;DHT22;30214;52.246;14.408;2023-01-01T13:56:02;15.80;99.60
44509;DHT22;30214;52.246;14.408;2023-01-01T13:58:57;15.70;99.90
44509;DHT22;30214;52.246;14.408;2023-01-01T14:01:47;15.70;99.60
44509;DHT22;30214;52.246;14.408;2023-01-01T14:04:33;15.70;99.80
44509;DHT22;30214;52.246;14.408;2023-01-01T14:07:10;15.70;99.60
44509;DHT22;30214;52.246;14.408;2023-01-01T14:09:44;15.60;99.90
44509;DHT22;30214;52.246;14.408;2023-01-01T14:12:16;15.70;99.70
44509;DHT22;30214;52.246;14.408;2023-01-01T14:14:43;15.60;99.90
44509;DHT22;30214;52.246;14.408;2023-01-01T14:17:13;15.60;99.90
44509;DHT22;30214;52.246;14.408;2023-01-01T14:19:41;15.60;99.90
44509;DHT22;30214;52.246;14.408;2023-01-01T14:22:10;15.60;99.90
44509;DHT22;30214;52.246;14.408;2023-01-01T14:24:44;15.50;99.90
44509;DHT22;30214;52.246;14.408;2023-01-01T14:27:17;15.50;99.90
44509;DHT22;30214;52.246;14.408;2023-01-01T14:29:45;15.40;99.90
44509;DHT22;30214;52.246;14.408;2023-01-01T14:32:19;15.30;99.90
44509;DHT22;30214;52.246;14.408;2023-01-01T14:34:56;15.20;99.90
44509;DHT22;30214;52.246;14.408;2023-01-01T14:37:25;15.10;99.90
44509;DHT22;30214;52.246;14.408;2023-01-01T14:40:14;15.10;99.90
44509;DHT22;30214;52.246;14.408;2023-01-01T14:42:46;15.00;99.90
44509;DHT22;30214;52.246;14.408;2023-01-01T14:45:17;15.00;99.90
44509;DHT22;30214;52.246;14.408;2023-01-01T14:47:47;14.90;99.90
44509;DHT22;30214;52.246;14.408;2023-01-01T14:50:23;14.90;99.90
44509;DHT22;30214;52.246;14.408;2023-01-01T14:52:55;14.80;99.90
44509;DHT22;30214;52.246;14.408;2023-01-01T14:55:31;14.80;99.90
44509;DHT22;30214;52.246;14.408;2023-01-01T14:58:01;14.80;99.90
44509;DHT22;30214;52.246;14.408;2023-01-01T15:00:30;14.70;99.90
44509;DHT22;30214;52.246;14.408;2023-01-01T15:03:06;14.70;99.90
44509;DHT22;30214;52.246;14.408;2023-01-01T15:05:38;14.60;99.90
44509;DHT22;30214;52.246;14.408;2023-01-01T15:08:16;14.60;99.90
44509;DHT22;30214;52.246;14.408;2023-01-01T15:10:46;14.50;99.90
44509;DHT22;30214;52.246;14.408;2023-01-01T15:13:18;14.50;99.90
44509;DHT22;30214;52.246;14.408;2023-01-01T15:15:48;14.50;99.90
44509;DHT22;30214;52.246;14.408;2023-01-01T15:18:34;14.40;99.90
44509;DHT22;30214;52.246;14.408;2023-01-01T15:21:05;14.50;99.90
44509;DHT22;30214;52.246;14.408;2023-01-01T15:23:36;14.50;99.90
44509;DHT22;30214;52.246;14.408;2023-01-01T15:26:08;14.40;99.90
44509;DHT22;30214;52.246;14.408;2023-01-01T15:28:36;14.40;99.90
44509;DHT22;30214;52.246;14.408;2023-01-01T15:31:07;14.30;99.90
44509;DHT22;30214;52.246;14.408;2023-01-01T15:33:36;14.30;99.90
44509;DHT22;30214;52.246;14.408;2023-01-01T15:36:04;14.20;99.90
44509;DHT22;30214;52.246;14.408;2023-01-01T15:38:33;14.20;99.90
44509;DHT22;30214;52.246;14.408;2023-01-01T15:41:24;14.20;99.90
44509;DHT22;30214;52.246;14.408;2023-01-01T15:44:06;14.20;99.90
44509;DHT22;30214;52.246;14.408;2023-01-01T15:46:34;14.10;99.90
44509;DHT22;30214;52.246;14.408;2023-01-01T15:49:01;14.10;99.90
44509;DHT22;30214;52.246;14.408;2023-01-01T15:51:28;13.90;99.90
44509;DHT22;30214;52.246;14.408;2023-01-01T15:53:57;13.90;99.90
44509;DHT22;30214;52.246;14.408;2023-01-01T15:56:29;13.90;99.90